Time;durP1;ratioP1;P1;durP2;ratioP2;P2;SDS_P1;SDS_P2;PMS_P1;PMS_P2;Temp;Humidity;BMP_temperature;BMP_pressure;BME280_temperature;BME280_humidity;BME280_pressure;Samples;Min_cycle;Max_cycle;Signal;HPM_P1;HPM_P2
2022/11/16 00:03:38;;;;;;;125.37;53.93;;;;;;;;;;12949343;22;19988;-73
2022/11/16 00:08:43;;;;;;;125.93;55.03;;;;;;;;;;12949622;22;19999;-73
2022/11/16 00:13:43;;;;;;;119.97;52.45;;;;;;;;;;12949469;22;20048;-72
2022/11/16 00:18:44;;;;;;;120.38;54.40;;;;;;;;;;12948959;22;20496;-73
2022/11/16 00:23:44;;;;;;;120.68;52.80;;;;;;;;;;12949424;22;20052;-73
2022/11/16 00:28:44;;;;;;;122.43;54.90;;;;;;;;;;12997696;22;20002;-72
2022/11/16 00:33:45;;;;;;;126.03;50.33;;;;;;;;;;12997945;22;19998;-74
2022/11/16 00:38:45;;;;;;;133.13;54.50;;;;;;;;;;12997368;22;20455;-74
2022/11/16 00:43:45;;;;;;;116.05;51.15;;;;;;;;;;12980170;22;20223;-74
2022/11/16 00:48:45;;;;;;;114.97;51.83;;;;;;;;;;12949083;22;19999;-72
2022/11/16 00:53:46;;;;;;;112.10;49.35;;;;;;;;;;12949266;22;20027;-73
2022/11/16 00:58:46;;;;;;;127.68;52.85;;;;;;;;;;12978463;22;20348;-72
2022/11/16 01:03:46;;;;;;;122.05;49.30;;;;;;;;;;12953012;22;20041;-72
2022/11/16 01:08:47;;;;;;;125.07;54.08;;;;;;;;;;12953190;22;19992;-72
2022/11/16 01:13:48;;;;;;;126.40;50.40;;;;;;;;;;12952712;22;20027;-73
2022/11/16 01:18:53;;;;;;;117.03;48.38;;;;;;;;;;12952276;22;20414;-73
2022/11/16 01:23:54;;;;;;;116.00;46.78;;;;;;;;;;12953338;22;19995;-72
2022/11/16 01:28:56;;;;;;;122.47;50.40;;;;;;;;;;12978608;22;20053;-72
2022/11/16 01:33:56;;;;;;;117.40;49.17;;;;;;;;;;13001549;22;20428;-73
2022/11/16 01:38:57;;;;;;;119.60;48.92;;;;;;;;;;12952611;22;20003;-71
2022/11/16 01:44:00;;;;;;;120.15;49.13;;;;;;;;;;13001899;22;19983;-73
2022/11/16 01:49:05;;;;;;;116.93;49.15;;;;;;;;;;12957187;22;19996;-72
2022/11/16 01:54:07;;;;;;;109.68;46.80;;;;;;;;;;12952905;22;19999;-72
2022/11/16 01:59:08;;;;;;;110.43;45.80;;;;;;;;;;12980830;22;19999;-72
2022/11/16 02:04:12;;;;;;;100.70;44.25;;;;;;;;;;13000492;22;19988;-74
2022/11/16 02:15:06;;;;;;;136.05;47.92;;;;;;;;;;12828868;22;20122;-74
2022/11/16 02:20:22;;;;;;;181.05;44.65;;;;;;;;;;12951738;22;20035;-72
2022/11/16 02:25:35;;;;;;;145.63;42.72;;;;;;;;;;12952527;22;19992;-73
2022/11/16 02:30:35;;;;;;;125.93;43.05;;;;;;;;;;12998882;22;19995;-74
2022/11/16 02:35:39;;;;;;;195.77;46.67;;;;;;;;;;12952014;22;20007;-73
2022/11/16 02:40:41;;;;;;;181.93;43.65;;;;;;;;;;12977345;22;20016;-74
2022/11/16 02:45:47;;;;;;;128.63;44.47;;;;;;;;;;12951148;22;20003;-76
2022/11/16 02:50:51;;;;;;;145.73;44.13;;;;;;;;;;12950955;22;20002;-76
2022/11/16 02:55:51;;;;;;;250.52;48.63;;;;;;;;;;12950883;22;20071;-74
2022/11/16 03:00:59;;;;;;;219.83;46.17;;;;;;;;;;12950680;22;20019;-75
2022/11/16 03:06:08;;;;;;;179.48;45.55;;;;;;;;;;12950762;22;20222;-74
2022/11/16 03:16:40;;;;;;;207.50;37.85;;;;;;;;;;12999497;22;19999;-77
2022/11/16 03:21:43;;;;;;;132.18;38.97;;;;;;;;;;12950123;22;20016;-72
2022/11/16 03:26:52;;;;;;;182.27;38.22;;;;;;;;;;12976052;22;20019;-75
2022/11/16 03:31:56;;;;;;;143.70;37.78;;;;;;;;;;12997333;22;20435;-73
2022/11/16 03:37:09;;;;;;;124.30;35.30;;;;;;;;;;12978595;22;20003;-73
2022/11/16 03:42:12;;;;;;;203.13;37.80;;;;;;;;;;12975460;22;20440;-73
2022/11/16 03:47:13;;;;;;;123.88;36.00;;;;;;;;;;12950441;22;19998;-74
2022/11/16 03:52:14;;;;;;;188.60;37.25;;;;;;;;;;12950324;22;19996;-74
2022/11/16 03:57:17;;;;;;;123.35;36.90;;;;;;;;;;12952295;22;19996;-72
2022/11/16 04:02:17;;;;;;;148.52;35.40;;;;;;;;;;12951811;22;20071;-74
2022/11/16 04:28:36;;;;;;;87.55;35.17;;;;;;;;;;12997861;22;20003;-75
2022/11/16 04:38:55;;;;;;;102.88;36.55;;;;;;;;;;12997158;22;20004;-79
2022/11/16 04:43:56;;;;;;;94.45;38.10;;;;;;;;;;12949966;22;19987;-73
2022/11/16 04:48:56;;;;;;;102.35;36.42;;;;;;;;;;12949276;22;20351;-75
2022/11/16 04:53:56;;;;;;;104.45;37.55;;;;;;;;;;12997059;22;20490;-74
2022/11/16 04:58:56;;;;;;;106.10;35.17;;;;;;;;;;12997255;22;20550;-73
2022/11/16 05:03:57;;;;;;;100.72;36.47;;;;;;;;;;12948991;22;20566;-75
2022/11/16 05:08:57;;;;;;;101.90;37.70;;;;;;;;;;12948675;22;20428;-74
2022/11/16 05:13:57;;;;;;;105.82;38.90;;;;;;;;;;12948877;22;20512;-72
2022/11/16 05:24:34;;;;;;;101.43;36.10;;;;;;;;;;12997289;22;19996;-74
2022/11/16 05:29:35;;;;;;;102.32;39.70;;;;;;;;;;12996815;22;20396;-73
2022/11/16 05:34:35;;;;;;;102.43;37.63;;;;;;;;;;12996175;22;20041;-79
2022/11/16 05:39:35;;;;;;;90.88;37.20;;;;;;;;;;12996621;22;19996;-77
2022/11/16 05:44:36;;;;;;;81.37;32.00;;;;;;;;;;12951643;22;19988;-77
2022/11/16 05:49:36;;;;;;;80.93;33.58;;;;;;;;;;12951533;22;20284;-75
2022/11/16 05:54:36;;;;;;;81.80;32.15;;;;;;;;;;13002618;22;19988;-78
2022/11/16 05:59:37;;;;;;;88.30;34.75;;;;;;;;;;12951697;22;20023;-73
2022/11/16 06:04:37;;;;;;;85.83;35.93;;;;;;;;;;12951134;22;19999;-81
2022/11/16 06:09:37;;;;;;;88.18;33.42;;;;;;;;;;13002592;22;20015;-73
2022/11/16 06:14:37;;;;;;;89.63;36.30;;;;;;;;;;12954101;22;20023;-75
2022/11/16 06:39:47;;;;;;;76.03;36.75;;;;;;;;;;10610782;27;20370;-78
2022/11/16 06:44:47;;;;;;;70.95;35.85;;;;;;;;;;10641098;27;20076;-76
2022/11/16 06:49:48;;;;;;;80.35;37.60;;;;;;;;;;10608007;27;20022;-75
2022/11/16 06:54:48;;;;;;;80.50;33.60;;;;;;;;;;10607785;27;20019;-82
2022/11/16 06:59:49;;;;;;;78.45;35.75;;;;;;;;;;10603508;28;20023;-75
2022/11/16 07:04:49;;;;;;;75.07;34.92;;;;;;;;;;10607539;27;20020;-75
2022/11/16 07:09:49;;;;;;;78.13;36.17;;;;;;;;;;10640286;27;20517;-74
2022/11/16 07:14:49;;;;;;;75.85;34.95;;;;;;;;;;10605536;28;20382;-76
2022/11/16 07:19:50;;;;;;;85.03;35.53;;;;;;;;;;10640709;27;20020;-76
2022/11/16 07:24:50;;;;;;;81.47;35.65;;;;;;;;;;10639691;27;20386;-76
2022/11/16 07:29:50;;;;;;;64.78;33.90;;;;;;;;;;10604660;28;20465;-74
2022/11/16 07:34:50;;;;;;;86.97;38.72;;;;;;;;;;10603684;27;20020;-73
2022/11/16 07:39:51;;;;;;;89.47;41.08;;;;;;;;;;10581046;27;20016;-75
2022/11/16 07:44:51;;;;;;;91.97;37.15;;;;;;;;;;10575687;28;20020;-73
2022/11/16 07:49:51;;;;;;;93.97;38.10;;;;;;;;;;10575830;28;20474;-76
2022/11/16 07:54:51;;;;;;;111.22;40.10;;;;;;;;;;10576196;28;20026;-74
2022/11/16 07:59:52;;;;;;;97.97;35.67;;;;;;;;;;10576206;28;20150;-75
2022/11/16 08:04:52;;;;;;;90.45;34.13;;;;;;;;;;10577225;28;20490;-74
2022/11/16 08:09:52;;;;;;;85.82;36.00;;;;;;;;;;10575601;28;20324;-73
2022/11/16 08:14:52;;;;;;;84.07;35.45;;;;;;;;;;10575041;28;20464;-73
2022/11/16 08:19:53;;;;;;;97.80;37.22;;;;;;;;;;10576212;28;20050;-74
2022/11/16 08:24:54;;;;;;;90.03;34.25;;;;;;;;;;10575378;28;20023;-75
2022/11/16 08:29:54;;;;;;;88.95;35.35;;;;;;;;;;10575340;28;20016;-73
2022/11/16 08:34:55;;;;;;;110.75;36.83;;;;;;;;;;10573786;28;20479;-73
2022/11/16 08:39:55;;;;;;;98.13;34.90;;;;;;;;;;10573718;28;20032;-73
2022/11/16 08:44:55;;;;;;;106.10;41.03;;;;;;;;;;10556824;28;20261;-74
2022/11/16 08:49:56;;;;;;;108.15;42.53;;;;;;;;;;10568771;28;20617;-74
2022/11/16 08:54:56;;;;;;;116.30;40.88;;;;;;;;;;10576628;27;20027;-74
2022/11/16 08:59:56;;;;;;;105.28;37.45;;;;;;;;;;10553254;28;20048;-73
2022/11/16 09:04:56;;;;;;;98.97;38.25;;;;;;;;;;10559801;28;20028;-74
2022/11/16 09:09:57;;;;;;;98.32;38.45;;;;;;;;;;10563556;28;20122;-75
2022/11/16 09:14:57;;;;;;;110.45;37.63;;;;;;;;;;10556047;28;20096;-73
2022/11/16 09:19:57;;;;;;;98.38;37.65;;;;;;;;;;10557339;28;20024;-76
2022/11/16 09:24:58;;;;;;;86.18;34.45;;;;;;;;;;10543776;28;20105;-76
2022/11/16 09:29:58;;;;;;;92.38;36.13;;;;;;;;;;10549730;28;20027;-74
2022/11/16 09:34:58;;;;;;;93.70;35.05;;;;;;;;;;10564909;28;20603;-74
2022/11/16 09:39:58;;;;;;;89.32;32.55;;;;;;;;;;10544298;28;20498;-74
2022/11/16 09:45:07;;;;;;;90.30;35.40;;;;;;;;;;10541267;28;20028;-79
2022/11/16 09:50:07;;;;;;;;;;;;;;;;;;10557839;28;20032;-75
2022/11/16 09:55:16;;;;;;;50.30;20.93;;;;;;;;;;10561460;28;19912;-75
2022/11/16 10:00:19;;;;;;;63.85;26.13;;;;;;;;;;10570762;28;20028;-76
2022/11/16 10:05:19;;;;;;;56.03;25.55;;;;;;;;;;10570909;28;20486;-75
2022/11/16 10:10:29;;;;;;;50.00;21.75;;;;;;;;;;10571750;28;20039;-74
2022/11/16 10:15:48;;;;;;;57.55;25.67;;;;;;;;;;10553366;28;20482;-75
2022/11/16 10:20:54;;;;;;;55.78;24.75;;;;;;;;;;10571875;27;20394;-75
2022/11/16 10:26:32;;;;;;;55.05;25.10;;;;;;;;;;10571112;28;20031;-76
2022/11/16 10:31:39;;;;;;;62.70;26.77;;;;;;;;;;10524532;28;20024;-75
2022/11/16 10:36:39;;;;;;;55.28;24.60;;;;;;;;;;10559815;28;20052;-75
2022/11/16 10:41:44;;;;;;;61.25;26.25;;;;;;;;;;10570817;27;20027;-74
2022/11/16 10:46:51;;;;;;;57.30;26.92;;;;;;;;;;10570094;28;20097;-76
2022/11/16 10:51:51;;;;;;;62.92;27.90;;;;;;;;;;10552912;28;20482;-74
2022/11/16 10:56:58;;;;;;;54.53;25.63;;;;;;;;;;10534260;28;20027;-74
2022/11/16 11:02:19;;;;;;;66.55;29.55;;;;;;;;;;10570589;28;20028;-76
2022/11/16 11:07:30;;;;;;;60.70;27.88;;;;;;;;;;10569400;28;20452;-76
2022/11/16 11:12:39;;;;;;;56.67;26.60;;;;;;;;;;10571057;28;20027;-74
2022/11/16 11:17:45;;;;;;;69.15;30.33;;;;;;;;;;10547579;28;20024;-74
2022/11/16 11:22:57;;;;;;;65.47;29.25;;;;;;;;;;10577723;28;20383;-74
2022/11/16 11:28:15;;;;;;;74.50;32.05;;;;;;;;;;10577559;28;20452;-75
2022/11/16 11:33:16;;;;;;;;;;;;;;;;;;10577390;28;20074;-73
2022/11/16 11:38:17;;;;;;;61.22;28.85;;;;;;;;;;10575832;28;20022;-74
2022/11/16 11:43:22;;;;;;;67.00;28.53;;;;;;;;;;10566680;28;20020;-74
2022/11/16 11:48:32;;;;;;;75.78;31.52;;;;;;;;;;10577857;28;20020;-76
2022/11/16 11:53:40;;;;;;;67.68;29.08;;;;;;;;;;10574884;28;20032;-76
2022/11/16 11:58:41;;;;;;;69.47;30.08;;;;;;;;;;10542283;28;20050;-74
2022/11/16 12:03:41;;;;;;;71.47;29.90;;;;;;;;;;10533236;28;20026;-75
2022/11/16 12:08:54;;;;;;;58.75;25.48;;;;;;;;;;10549495;28;20027;-75
2022/11/16 12:14:18;;;;;;;57.22;24.27;;;;;;;;;;10574928;28;20023;-74
2022/11/16 12:19:31;;;;;;;56.40;26.30;;;;;;;;;;10575736;28;20028;-79
2022/11/16 12:24:38;;;;;;;55.10;26.60;;;;;;;;;;10574237;28;20462;-73
2022/11/16 12:29:57;;;;;;;58.85;25.08;;;;;;;;;;10574613;28;20035;-72
2022/11/16 12:35:23;;;;;;;54.40;24.55;;;;;;;;;;10562660;28;20090;-74
2022/11/16 12:40:29;;;;;;;50.60;22.83;;;;;;;;;;10573794;28;20024;-74
2022/11/16 12:45:30;;;;;;;52.97;23.27;;;;;;;;;;10573016;27;20023;-74
2022/11/16 12:50:33;;;;;;;49.38;22.17;;;;;;;;;;10574739;27;20019;-72
2022/11/16 12:55:36;;;;;;;48.95;22.80;;;;;;;;;;10556611;28;20466;-73
2022/11/16 13:00:55;;;;;;;43.83;19.88;;;;;;;;;;10553903;28;20023;-73
2022/11/16 13:06:07;;;;;;;48.20;20.65;;;;;;;;;;10542324;28;20028;-74
2022/11/16 13:11:28;;;;;;;44.40;20.73;;;;;;;;;;10557221;28;20027;-74
2022/11/16 13:16:29;;;;;;;45.03;20.85;;;;;;;;;;10546822;28;20051;-74
2022/11/16 13:21:38;;;;;;;47.13;20.48;;;;;;;;;;10550031;28;20635;-74
2022/11/16 13:26:39;;;;;;;46.97;22.45;;;;;;;;;;10541912;28;20038;-73
2022/11/16 13:31:47;;;;;;;55.10;21.70;;;;;;;;;;10546271;28;20039;-74
2022/11/16 13:36:48;;;;;;;50.65;23.25;;;;;;;;;;10549349;28;20111;-73
2022/11/16 13:42:05;;;;;;;52.60;23.00;;;;;;;;;;10571661;28;20523;-73
2022/11/16 13:47:16;;;;;;;55.13;23.85;;;;;;;;;;10571601;28;20461;-75
2022/11/16 13:52:16;;;;;;;52.60;22.88;;;;;;;;;;10554207;28;20028;-74
2022/11/16 13:57:20;;;;;;;55.67;21.63;;;;;;;;;;10570653;28;20023;-74
2022/11/16 14:02:28;;;;;;;57.53;23.60;;;;;;;;;;10570708;28;20447;-73
2022/11/16 14:07:28;;;;;;;;;;;;;;;;;;10533692;28;20048;-74
2022/11/16 14:12:35;;;;;;;50.10;21.80;;;;;;;;;;10553658;28;20364;-72
2022/11/16 14:17:53;;;;;;;45.42;21.52;;;;;;;;;;10528086;28;20024;-72
2022/11/16 14:22:56;;;;;;;58.85;22.33;;;;;;;;;;10528197;28;20016;-73
2022/11/16 14:28:15;;;;;;;57.10;23.42;;;;;;;;;;10536585;28;20027;-75
2022/11/16 14:33:15;;;;;;;;;;;;;;;;;;10549471;28;20027;-75
2022/11/16 14:38:20;;;;;;;65.05;24.42;;;;;;;;;;10570726;28;19931;-75
2022/11/16 14:43:22;;;;;;;50.88;23.42;;;;;;;;;;10569473;28;20080;-75
2022/11/16 14:48:26;;;;;;;52.67;25.25;;;;;;;;;;10572692;28;20058;-74
2022/11/16 14:53:27;;;;;;;61.15;25.20;;;;;;;;;;10578354;28;20023;-74
2022/11/16 14:58:27;;;;;;;55.92;24.25;;;;;;;;;;10551354;28;20032;-73
2022/11/16 15:03:30;;;;;;;59.65;26.15;;;;;;;;;;10577593;28;20530;-75
2022/11/16 15:08:36;;;;;;;60.25;25.17;;;;;;;;;;10577606;28;20421;-75
2022/11/16 15:13:36;;;;;;;55.03;25.67;;;;;;;;;;10577037;28;20028;-74
2022/11/16 15:18:36;;;;;;;63.83;27.73;;;;;;;;;;10550924;28;20024;-75
2022/11/16 15:23:45;;;;;;;61.10;27.15;;;;;;;;;;10550738;28;20055;-75
2022/11/16 15:28:45;;;;;;;57.45;24.58;;;;;;;;;;10576348;28;20409;-72
2022/11/16 15:33:45;;;;;;;65.90;28.77;;;;;;;;;;10562677;28;20026;-74
2022/11/16 15:38:46;;;;;;;57.30;27.57;;;;;;;;;;10533402;28;20052;-73
2022/11/16 15:43:52;;;;;;;64.65;27.70;;;;;;;;;;10540832;28;20257;-74
2022/11/16 15:48:53;;;;;;;67.53;26.75;;;;;;;;;;10567973;28;20102;-72
2022/11/16 15:53:53;;;;;;;52.95;26.85;;;;;;;;;;10559646;28;20110;-73
2022/11/16 15:59:00;;;;;;;71.70;29.25;;;;;;;;;;10552160;28;20024;-74
2022/11/16 16:04:02;;;;;;;70.13;27.95;;;;;;;;;;10551174;28;20028;-73
2022/11/16 16:09:04;;;;;;;66.72;30.95;;;;;;;;;;10553727;28;20043;-74
2022/11/16 16:14:09;;;;;;;79.10;30.75;;;;;;;;;;10552055;28;20115;-72
2022/11/16 16:19:25;;;;;;;69.88;29.48;;;;;;;;;;10556347;28;20479;-74
2022/11/16 16:24:44;;;;;;;80.38;30.27;;;;;;;;;;10551042;28;20396;-74
2022/11/16 16:29:45;;;;;;;73.85;32.75;;;;;;;;;;10548882;28;20027;-72
2022/11/16 16:34:45;;;;;;;74.43;31.50;;;;;;;;;;10552897;27;20035;-74
2022/11/16 16:39:45;;;;;;;66.55;32.25;;;;;;;;;;10594458;27;20027;-73
2022/11/16 16:44:46;;;;;;;71.20;30.55;;;;;;;;;;10589921;27;20027;-73
2022/11/16 16:49:50;;;;;;;73.78;31.15;;;;;;;;;;10587365;27;20027;-74
2022/11/16 16:54:50;;;;;;;67.13;31.63;;;;;;;;;;10593347;27;20024;-74
2022/11/16 16:59:50;;;;;;;71.93;30.92;;;;;;;;;;10578131;27;20031;-74
2022/11/16 17:04:51;;;;;;;86.57;34.47;;;;;;;;;;10580826;27;20023;-76
2022/11/16 17:09:51;;;;;;;82.90;32.53;;;;;;;;;;10576355;27;20025;-73
2022/11/16 17:14:51;;;;;;;71.95;32.65;;;;;;;;;;10574177;27;20027;-73
2022/11/16 17:19:51;;;;;;;74.03;31.85;;;;;;;;;;10578618;27;20465;-73
2022/11/16 17:24:52;;;;;;;78.10;32.55;;;;;;;;;;10568141;27;20019;-74
2022/11/16 17:29:52;;;;;;;75.68;33.42;;;;;;;;;;10582848;27;20420;-73
2022/11/16 17:34:52;;;;;;;83.30;33.92;;;;;;;;;;10583275;27;20030;-73
2022/11/16 17:39:52;;;;;;;89.38;36.63;;;;;;;;;;10583690;27;20026;-76
2022/11/16 17:44:54;;;;;;;88.45;34.55;;;;;;;;;;10586947;27;20054;-74
2022/11/16 17:49:54;;;;;;;80.15;37.70;;;;;;;;;;10574405;27;20038;-77
2022/11/16 17:54:54;;;;;;;100.85;38.38;;;;;;;;;;10567675;27;20029;-73
2022/11/16 17:59:54;;;;;;;91.00;38.55;;;;;;;;;;10572007;27;20023;-74
2022/11/16 18:04:55;;;;;;;86.80;37.65;;;;;;;;;;10585799;27;20023;-75
2022/11/16 18:09:55;;;;;;;98.80;39.92;;;;;;;;;;10549058;27;20035;-72
2022/11/16 18:14:55;;;;;;;78.20;37.25;;;;;;;;;;10567981;27;20554;-76
2022/11/16 18:19:55;;;;;;;99.15;43.50;;;;;;;;;;10590205;27;20501;-74
2022/11/16 18:24:56;;;;;;;101.13;40.50;;;;;;;;;;10573554;27;20478;-78
2022/11/16 18:29:56;;;;;;;86.28;38.72;;;;;;;;;;10570886;28;20023;-77
2022/11/16 18:34:56;;;;;;;102.70;42.00;;;;;;;;;;10578048;28;20389;-73
2022/11/16 18:39:57;;;;;;;91.97;38.97;;;;;;;;;;10583929;28;20039;-73
2022/11/16 18:44:57;;;;;;;84.55;38.05;;;;;;;;;;10570828;28;20035;-74
2022/11/16 18:49:58;;;;;;;96.10;40.20;;;;;;;;;;10576990;28;20016;-72
2022/11/16 18:54:58;;;;;;;93.93;37.13;;;;;;;;;;10577844;28;20034;-75
2022/11/16 18:59:58;;;;;;;88.00;38.35;;;;;;;;;;10574610;28;20034;-74
2022/11/16 19:04:59;;;;;;;96.77;38.30;;;;;;;;;;10594748;28;20049;-73
2022/11/16 19:09:59;;;;;;;86.43;37.20;;;;;;;;;;10596016;28;20277;-72
2022/11/16 19:15:01;;;;;;;91.33;38.23;;;;;;;;;;10560272;28;20150;-73
2022/11/16 19:20:01;;;;;;;88.20;38.33;;;;;;;;;;10583712;28;20558;-73
2022/11/16 19:25:03;;;;;;;91.10;37.65;;;;;;;;;;10570417;28;20077;-72
2022/11/16 19:30:03;;;;;;;86.85;38.40;;;;;;;;;;10586897;27;20060;-73
2022/11/16 19:35:06;;;;;;;99.75;39.88;;;;;;;;;;10583261;27;20029;-75
2022/11/16 19:40:06;;;;;;;89.00;38.42;;;;;;;;;;10585305;27;20536;-72
2022/11/16 19:45:07;;;;;;;97.72;38.92;;;;;;;;;;10588529;27;20027;-73
2022/11/16 19:50:09;;;;;;;94.35;38.25;;;;;;;;;;10582938;27;20019;-72
2022/11/16 19:55:09;;;;;;;95.47;37.22;;;;;;;;;;10583489;27;20555;-72
2022/11/16 20:00:10;;;;;;;78.55;33.60;;;;;;;;;;10605835;27;20030;-73
2022/11/16 20:05:10;;;;;;;80.35;34.78;;;;;;;;;;10587706;27;20042;-73
2022/11/16 20:10:10;;;;;;;69.20;28.95;;;;;;;;;;10589942;27;20023;-74
2022/11/16 20:15:11;;;;;;;78.35;31.67;;;;;;;;;;10583427;27;20028;-73
2022/11/16 20:20:12;;;;;;;67.50;31.83;;;;;;;;;;10585080;27;20457;-73
2022/11/16 20:25:15;;;;;;;85.13;33.83;;;;;;;;;;10574396;27;20018;-75
2022/11/16 20:30:15;;;;;;;77.53;31.88;;;;;;;;;;10570332;27;20578;-75
2022/11/16 20:35:16;;;;;;;78.10;32.72;;;;;;;;;;10588725;27;20047;-72
2022/11/16 20:40:16;;;;;;;81.25;35.20;;;;;;;;;;10589179;27;20036;-73
2022/11/16 20:45:16;;;;;;;81.45;34.10;;;;;;;;;;10582618;27;20042;-73
2022/11/16 20:50:20;;;;;;;80.03;32.50;;;;;;;;;;10575750;27;20041;-72
2022/11/16 20:55:21;;;;;;;77.25;32.33;;;;;;;;;;10599213;27;20023;-74
2022/11/16 21:00:21;;;;;;;83.75;32.75;;;;;;;;;;10582954;27;20015;-72
2022/11/16 21:05:21;;;;;;;87.53;34.05;;;;;;;;;;10605594;27;20048;-72
2022/11/16 21:10:21;;;;;;;79.28;33.15;;;;;;;;;;10601420;27;20440;-74
2022/11/16 21:15:22;;;;;;;88.25;35.50;;;;;;;;;;10581228;27;20572;-74
2022/11/16 21:20:22;;;;;;;78.05;35.00;;;;;;;;;;10592865;27;20409;-74
2022/11/16 21:25:22;;;;;;;80.47;35.25;;;;;;;;;;10612917;27;20034;-73
2022/11/16 21:30:22;;;;;;;82.63;33.90;;;;;;;;;;10611779;27;20019;-72
2022/11/16 21:35:25;;;;;;;77.22;34.80;;;;;;;;;;10572365;27;20151;-74
2022/11/16 21:40:25;;;;;;;79.38;33.72;;;;;;;;;;10524337;28;20363;-73
2022/11/16 21:45:26;;;;;;;88.95;34.78;;;;;;;;;;10526337;28;20019;-75
2022/11/16 21:50:26;;;;;;;75.97;32.50;;;;;;;;;;10510365;28;20043;-74
2022/11/16 21:55:27;;;;;;;69.70;32.03;;;;;;;;;;10549045;28;20122;-74
2022/11/16 22:00:27;;;;;;;84.95;34.78;;;;;;;;;;10539180;28;20032;-74
2022/11/16 22:10:50;;;;;;;79.85;33.28;;;;;;;;;;10538510;28;20027;-74
2022/11/16 22:15:51;;;;;;;65.32;30.33;;;;;;;;;;10552113;28;20016;-75
2022/11/16 22:20:51;;;;;;;80.55;30.85;;;;;;;;;;10539709;28;20117;-74
2022/11/16 22:25:51;;;;;;;68.43;27.93;;;;;;;;;;10543135;28;20102;-74
2022/11/16 22:30:58;;;;;;;74.47;31.67;;;;;;;;;;10544663;28;20439;-76
2022/11/16 22:35:59;;;;;;;61.28;28.10;;;;;;;;;;10543811;28;20512;-73
2022/11/16 22:40:59;;;;;;;64.17;27.87;;;;;;;;;;10552285;28;20132;-75
2022/11/16 22:46:00;;;;;;;73.27;29.57;;;;;;;;;;10552930;28;20027;-74
2022/11/16 22:51:27;;;;;;;60.10;25.17;;;;;;;;;;10535318;28;20035;-79
2022/11/16 22:56:28;;;;;;;52.10;25.45;;;;;;;;;;10545904;28;20526;-74
2022/11/16 23:01:28;;;;;;;53.55;24.60;;;;;;;;;;10548788;28;20015;-72
2022/11/16 23:06:28;;;;;;;64.40;28.05;;;;;;;;;;10567233;28;20031;-72
2022/11/16 23:16:47;;;;;;;68.40;28.83;;;;;;;;;;10573136;28;20012;-73
2022/11/16 23:32:26;;;;;;;54.92;24.90;;;;;;;;;;10575606;28;20031;-72
2022/11/16 23:37:27;;;;;;;58.80;26.38;;;;;;;;;;10578019;27;20048;-74
2022/11/16 23:47:46;;;;;;;63.17;30.35;;;;;;;;;;10578548;28;20413;-75
2022/11/16 23:52:46;;;;;;;61.40;28.92;;;;;;;;;;10559714;28;20023;-75
2022/11/16 23:57:46;;;;;;;61.97;30.20;;;;;;;;;;10559390;28;20024;-75
